Time;durP1;ratioP1;P1;durP2;ratioP2;P2;SDS_P1;SDS_P2;PMS_P1;PMS_P2;Temp;Humidity;BMP_temperature;BMP_pressure;BME280_temperature;BME280_humidity;BME280_pressure;Samples;Min_cycle;Max_cycle;Signal;HPM_P1;HPM_P2
2023/09/15 00:01:43;;;;;;;3.88;1.55;;;;;;;;;;6183891;23;20187;-94
2023/09/15 00:04:12;;;;;;;1.65;1.50;;;;;;;;;;6183733;23;20152;-95
2023/09/15 00:06:40;;;;;;;2.38;1.52;;;;;;;;;;6183776;23;20222;-96
2023/09/15 00:09:14;;;;;;;1.60;1.17;;;;;;;;;;6183490;23;20167;-94
2023/09/15 00:11:42;;;;;;;2.42;1.25;;;;;;;;;;6183763;23;20163;-96
2023/09/15 00:14:11;;;;;;;1.60;1.30;;;;;;;;;;6183734;23;20175;-93
2023/09/15 00:16:40;;;;;;;1.42;1.05;;;;;;;;;;6183900;23;20182;-95
2023/09/15 00:19:13;;;;;;;5.45;1.45;;;;;;;;;;6183387;23;20178;-93
2023/09/15 00:21:41;;;;;;;3.00;1.63;;;;;;;;;;6183809;23;20162;-95
2023/09/15 00:24:11;;;;;;;2.90;1.33;;;;;;;;;;6183088;23;20150;-95
2023/09/15 00:26:39;;;;;;;3.08;1.27;;;;;;;;;;6183618;23;20189;-94
2023/09/15 00:29:09;;;;;;;1.25;1.05;;;;;;;;;;6182864;23;20194;-94
2023/09/15 00:31:37;;;;;;;4.05;1.40;;;;;;;;;;6183413;23;20159;-93
2023/09/15 00:34:05;;;;;;;2.08;1.15;;;;;;;;;;6183498;23;20163;-94
2023/09/15 00:36:33;;;;;;;1.88;1.42;;;;;;;;;;6183558;23;20144;-94
2023/09/15 00:39:01;;;;;;;2.00;1.33;;;;;;;;;;6183184;23;20249;-93
2023/09/15 00:41:33;;;;;;;1.30;1.20;;;;;;;;;;6183520;23;20171;-94
2023/09/15 00:44:01;;;;;;;1.58;1.48;;;;;;;;;;6183295;23;20152;-95
2023/09/15 00:46:30;;;;;;;3.25;1.35;;;;;;;;;;6183313;23;20167;-94
2023/09/15 00:49:01;;;;;;;1.13;1.02;;;;;;;;;;6183081;23;20167;-94
2023/09/15 00:51:29;;;;;;;2.83;1.48;;;;;;;;;;6183500;23;20151;-94
2023/09/15 00:53:59;;;;;;;1.45;1.35;;;;;;;;;;6183301;23;20159;-94
2023/09/15 00:56:29;;;;;;;2.28;1.33;;;;;;;;;;6183287;23;20148;-93
2023/09/15 00:58:56;;;;;;;2.17;1.52;;;;;;;;;;6182863;23;20183;-94
2023/09/15 01:01:27;;;;;;;1.98;1.38;;;;;;;;;;6183341;23;20191;-94
2023/09/15 01:03:55;;;;;;;2.13;1.50;;;;;;;;;;6183337;23;20155;-94
2023/09/15 01:06:24;;;;;;;2.40;1.92;;;;;;;;;;6183082;23;20175;-94
2023/09/15 01:08:55;;;;;;;1.67;1.15;;;;;;;;;;6182949;23;20193;-94
2023/09/15 01:11:23;;;;;;;1.30;1.20;;;;;;;;;;6183270;23;20158;-95
2023/09/15 01:13:52;;;;;;;3.47;1.75;;;;;;;;;;6183243;23;20171;-94
2023/09/15 01:16:27;;;;;;;1.60;1.38;;;;;;;;;;6183117;23;20151;-94
2023/09/15 01:19:04;;;;;;;2.47;1.75;;;;;;;;;;6182836;23;20206;-94
2023/09/15 01:22:10;;;;;;;3.20;1.50;;;;;;;;;;6183145;23;20155;-95
2023/09/15 01:25:16;;;;;;;2.45;1.77;;;;;;;;;;6182999;23;20152;-94
2023/09/15 01:28:04;;;;;;;2.25;1.85;;;;;;;;;;6162084;23;20234;-94
2023/09/15 01:30:34;;;;;;;2.22;2.03;;;;;;;;;;6183049;23;20190;-93
2023/09/15 01:33:03;;;;;;;1.83;1.70;;;;;;;;;;6182984;23;20162;-94
2023/09/15 01:35:32;;;;;;;3.08;1.92;;;;;;;;;;6182876;23;20171;-94
2023/09/15 01:38:00;;;;;;;1.88;1.65;;;;;;;;;;6182549;23;20170;-94
2023/09/15 01:40:28;;;;;;;2.95;1.83;;;;;;;;;;6183042;23;20160;-92
2023/09/15 01:42:56;;;;;;;2.70;1.60;;;;;;;;;;6182858;23;20157;-94
2023/09/15 01:45:24;;;;;;;3.08;1.88;;;;;;;;;;6182849;23;20169;-94
2023/09/15 01:47:53;;;;;;;1.90;1.77;;;;;;;;;;6182640;23;20197;-95
2023/09/15 01:50:22;;;;;;;1.70;1.60;;;;;;;;;;6183034;23;20171;-94
2023/09/15 01:52:51;;;;;;;6.03;2.10;;;;;;;;;;6182843;23;20151;-94
2023/09/15 01:55:21;;;;;;;5.30;1.88;;;;;;;;;;6182829;23;20144;-94
2023/09/15 01:57:50;;;;;;;1.70;1.60;;;;;;;;;;6182667;23;20206;-94
2023/09/15 02:00:17;;;;;;;2.42;1.92;;;;;;;;;;6182795;23;20174;-94
2023/09/15 02:02:48;;;;;;;2.05;1.80;;;;;;;;;;6183004;23;20166;-94
2023/09/15 02:05:24;;;;;;;1.88;1.73;;;;;;;;;;6182780;23;20151;-94
2023/09/15 02:07:52;;;;;;;4.35;2.13;;;;;;;;;;6182499;23;20202;-95
2023/09/15 02:10:20;;;;;;;2.90;1.85;;;;;;;;;;6182864;23;20207;-95
2023/09/15 02:12:47;;;;;;;5.53;2.70;;;;;;;;;;6182919;23;20148;-95
2023/09/15 02:15:17;;;;;;;3.47;2.10;;;;;;;;;;6182836;23;20157;-94
2023/09/15 02:17:44;;;;;;;4.93;3.22;;;;;;;;;;6182396;23;20148;-95
2023/09/15 02:20:12;;;;;;;2.72;2.53;;;;;;;;;;6182799;23;20155;-95
2023/09/15 02:22:43;;;;;;;2.83;2.25;;;;;;;;;;6182890;23;20175;-94
2023/09/15 02:25:11;;;;;;;2.83;2.47;;;;;;;;;;6182659;23;20151;-94
2023/09/15 02:27:38;;;;;;;4.43;2.17;;;;;;;;;;6182382;23;20199;-93
2023/09/15 02:30:08;;;;;;;2.65;2.45;;;;;;;;;;6182569;23;20155;-94
2023/09/15 02:32:36;;;;;;;2.47;2.17;;;;;;;;;;6182573;23;20286;-93
2023/09/15 02:35:04;;;;;;;2.20;2.00;;;;;;;;;;6182700;23;20151;-94
2023/09/15 02:37:33;;;;;;;3.00;2.10;;;;;;;;;;6182617;23;20175;-94
2023/09/15 02:40:03;;;;;;;4.25;2.30;;;;;;;;;;6182762;23;20151;-94
2023/09/15 02:42:33;;;;;;;3.33;2.25;;;;;;;;;;6182641;23;20246;-93
2023/09/15 02:45:01;;;;;;;2.05;1.85;;;;;;;;;;6182800;23;20144;-94
2023/09/15 02:47:32;;;;;;;2.80;1.95;;;;;;;;;;6182875;23;20170;-94
2023/09/15 02:50:00;;;;;;;4.15;2.47;;;;;;;;;;6184567;23;20195;-94
2023/09/15 02:52:27;;;;;;;2.67;2.35;;;;;;;;;;6184569;23;20166;-94
2023/09/15 02:54:55;;;;;;;3.63;2.15;;;;;;;;;;6184307;23;20155;-95
2023/09/15 02:57:24;;;;;;;2.50;2.20;;;;;;;;;;6184288;23;20171;-95
2023/09/15 02:59:54;;;;;;;4.03;2.03;;;;;;;;;;6184263;23;20175;-95
2023/09/15 03:02:22;;;;;;;4.28;2.90;;;;;;;;;;6184342;23;20183;-94
2023/09/15 03:04:50;;;;;;;3.58;2.25;;;;;;;;;;6184574;23;20171;-93
2023/09/15 03:07:18;;;;;;;2.33;2.13;;;;;;;;;;6178878;23;20174;-95
2023/09/15 03:09:46;;;;;;;3.00;2.13;;;;;;;;;;6178222;23;20175;-94
2023/09/15 03:12:16;;;;;;;3.75;2.50;;;;;;;;;;6178851;23;20152;-92
2023/09/15 03:14:50;;;;;;;3.60;2.80;;;;;;;;;;6178975;23;20159;-95
2023/09/15 03:17:21;;;;;;;3.45;2.60;;;;;;;;;;6178866;23;20151;-94
2023/09/15 03:19:50;;;;;;;4.22;2.45;;;;;;;;;;6178536;23;20167;-95
2023/09/15 03:22:18;;;;;;;5.20;2.38;;;;;;;;;;6178590;23;20152;-93
2023/09/15 03:24:46;;;;;;;2.25;1.98;;;;;;;;;;6179195;23;20148;-94
2023/09/15 03:27:14;;;;;;;3.20;2.25;;;;;;;;;;6179077;23;20187;-95
2023/09/15 03:29:41;;;;;;;2.60;2.40;;;;;;;;;;6178613;23;20203;-94
2023/09/15 03:32:11;;;;;;;2.75;1.70;;;;;;;;;;6178817;23;20163;-95
2023/09/15 03:34:39;;;;;;;3.75;2.30;;;;;;;;;;6178587;23;20152;-94
2023/09/15 03:37:07;;;;;;;3.03;2.72;;;;;;;;;;6178854;23;20148;-94
2023/09/15 03:39:35;;;;;;;2.53;2.33;;;;;;;;;;6178937;23;20171;-96
2023/09/15 03:42:03;;;;;;;2.55;2.30;;;;;;;;;;6178874;23;20171;-94
2023/09/15 03:44:30;;;;;;;2.90;2.47;;;;;;;;;;6178670;23;20147;-94
2023/09/15 03:46:58;;;;;;;2.63;2.42;;;;;;;;;;6179067;23;20159;-93
2023/09/15 03:49:28;;;;;;;4.25;2.55;;;;;;;;;;6178675;23;20206;-93
2023/09/15 03:51:56;;;;;;;2.25;2.00;;;;;;;;;;6179179;23;20159;-93
2023/09/15 03:54:26;;;;;;;2.17;2.08;;;;;;;;;;6178760;23;20171;-94
2023/09/15 03:56:54;;;;;;;2.63;2.10;;;;;;;;;;6178451;23;20159;-94
2023/09/15 03:59:22;;;;;;;2.10;1.95;;;;;;;;;;6178506;23;20198;-94
2023/09/15 04:01:50;;;;;;;2.53;2.33;;;;;;;;;;6178771;23;20147;-94
2023/09/15 04:04:19;;;;;;;4.13;3.03;;;;;;;;;;6178265;23;20194;-94
2023/09/15 04:06:49;;;;;;;2.47;2.28;;;;;;;;;;6178135;23;20177;-95
2023/09/15 04:09:19;;;;;;;3.17;2.20;;;;;;;;;;6177762;23;20187;-93
2023/09/15 04:11:46;;;;;;;4.65;2.47;;;;;;;;;;6178232;23;20198;-94
2023/09/15 04:14:15;;;;;;;2.03;1.83;;;;;;;;;;6178383;23;20151;-95
2023/09/15 04:16:42;;;;;;;2.42;2.22;;;;;;;;;;6178625;23;20155;-96
2023/09/15 04:19:10;;;;;;;2.97;2.72;;;;;;;;;;6178380;23;20226;-93
2023/09/15 04:21:39;;;;;;;3.63;2.40;;;;;;;;;;6177847;23;20151;-93
2023/09/15 04:24:13;;;;;;;3.05;2.55;;;;;;;;;;6178008;23;20166;-94
2023/09/15 04:26:42;;;;;;;3.00;2.67;;;;;;;;;;6178167;23;20178;-95
2023/09/15 04:29:11;;;;;;;3.78;2.50;;;;;;;;;;6177489;23;20187;-96
2023/09/15 04:31:42;;;;;;;2.42;1.98;;;;;;;;;;6177931;23;20168;-94
2023/09/15 04:34:10;;;;;;;2.25;2.05;;;;;;;;;;6177737;23;20152;-95
2023/09/15 04:36:38;;;;;;;2.70;2.50;;;;;;;;;;6178000;23;20171;-93
2023/09/15 04:39:09;;;;;;;2.42;2.25;;;;;;;;;;6177645;23;20171;-93
2023/09/15 04:41:37;;;;;;;2.42;2.22;;;;;;;;;;6177842;23;20162;-94
2023/09/15 04:44:05;;;;;;;2.75;2.55;;;;;;;;;;6177652;23;20167;-95
2023/09/15 04:46:33;;;;;;;3.53;2.05;;;;;;;;;;6177717;23;20163;-94
2023/09/15 04:49:02;;;;;;;3.67;2.35;;;;;;;;;;6177393;23;20213;-94
2023/09/15 04:51:30;;;;;;;2.40;2.20;;;;;;;;;;6177866;23;20190;-94
2023/09/15 04:53:58;;;;;;;2.28;2.10;;;;;;;;;;6177902;23;20170;-94
2023/09/15 04:56:30;;;;;;;2.63;2.42;;;;;;;;;;6177899;23;20171;-95
2023/09/15 04:59:01;;;;;;;2.70;2.50;;;;;;;;;;6177308;23;20167;-94
2023/09/15 05:01:30;;;;;;;3.15;2.85;;;;;;;;;;6178069;23;20190;-94
2023/09/15 05:03:58;;;;;;;2.65;2.45;;;;;;;;;;6177746;23;20162;-94
2023/09/15 05:06:28;;;;;;;2.63;2.42;;;;;;;;;;6177952;23;20174;-94
2023/09/15 05:08:59;;;;;;;3.15;2.63;;;;;;;;;;6182532;23;20243;-95
2023/09/15 05:11:31;;;;;;;2.45;2.25;;;;;;;;;;6182816;23;20155;-94
2023/09/15 05:14:00;;;;;;;2.58;2.20;;;;;;;;;;6183326;23;20161;-94
2023/09/15 05:16:28;;;;;;;2.85;2.65;;;;;;;;;;6183035;23;20171;-93
2023/09/15 05:18:56;;;;;;;2.47;2.28;;;;;;;;;;6183020;23;20223;-94
2023/09/15 05:21:32;;;;;;;2.40;2.20;;;;;;;;;;6183119;23;20166;-95
2023/09/15 05:24:03;;;;;;;2.00;1.88;;;;;;;;;;6183083;23;20159;-96
2023/09/15 05:26:35;;;;;;;2.40;2.20;;;;;;;;;;6182497;23;20195;-96
2023/09/15 05:29:05;;;;;;;3.20;3.00;;;;;;;;;;6180922;23;20186;-95
2023/09/15 05:31:35;;;;;;;2.40;1.98;;;;;;;;;;6184528;23;20147;-96
2023/09/15 05:34:11;;;;;;;1.50;1.40;;;;;;;;;;6184688;23;20147;-95
2023/09/15 05:36:44;;;;;;;1.48;1.38;;;;;;;;;;6184693;23;20154;-96
2023/09/15 05:39:16;;;;;;;1.95;1.85;;;;;;;;;;6184482;23;20165;-95
2023/09/15 05:41:50;;;;;;;1.45;1.35;;;;;;;;;;6184733;23;20163;-96
2023/09/15 05:44:21;;;;;;;1.50;1.40;;;;;;;;;;6184611;23;20174;-96
2023/09/15 05:46:49;;;;;;;1.23;1.23;;;;;;;;;;6184699;23;20158;-96
2023/09/15 05:49:17;;;;;;;1.52;1.42;;;;;;;;;;6184327;23;20207;-95
2023/09/15 05:51:46;;;;;;;1.67;1.58;;;;;;;;;;6184839;23;20147;-96
2023/09/15 05:54:14;;;;;;;1.50;1.40;;;;;;;;;;6184473;23;20203;-95
2023/09/15 05:56:46;;;;;;;1.27;1.27;;;;;;;;;;6184580;23;20164;-96
2023/09/15 05:59:15;;;;;;;1.10;1.10;;;;;;;;;;6184166;23;20158;-95
2023/09/15 06:01:46;;;;;;;1.20;1.20;;;;;;;;;;6184403;23;20152;-96
2023/09/15 06:04:20;;;;;;;1.13;1.02;;;;;;;;;;6184603;23;20152;-95
2023/09/15 06:06:48;;;;;;;1.50;1.40;;;;;;;;;;6184780;23;20147;-96
2023/09/15 06:09:18;;;;;;;1.08;1.05;;;;;;;;;;6184208;23;20174;-96
2023/09/15 06:11:48;;;;;;;1.50;1.40;;;;;;;;;;6184514;23;20159;-96
2023/09/15 06:14:18;;;;;;;1.77;1.67;;;;;;;;;;6184465;23;20175;-95
2023/09/15 06:16:46;;;;;;;1.63;1.52;;;;;;;;;;6184448;23;20195;-96
2023/09/15 06:19:14;;;;;;;1.80;1.70;;;;;;;;;;6184288;23;20148;-96
2023/09/15 06:21:44;;;;;;;1.65;1.50;;;;;;;;;;6184454;23;20156;-96
2023/09/15 06:24:12;;;;;;;1.58;1.48;;;;;;;;;;6186320;23;20163;-96
2023/09/15 06:26:42;;;;;;;1.83;1.40;;;;;;;;;;6186401;23;20170;-96
2023/09/15 06:29:12;;;;;;;1.73;1.33;;;;;;;;;;6185550;23;20179;-94
2023/09/15 06:31:40;;;;;;;1.98;1.88;;;;;;;;;;6186354;23;20144;-96
2023/09/15 06:34:08;;;;;;;1.52;1.42;;;;;;;;;;6186189;23;20151;-95
2023/09/15 06:36:38;;;;;;;2.17;1.98;;;;;;;;;;6186267;23;20171;-95
2023/09/15 06:39:07;;;;;;;2.22;2.03;;;;;;;;;;6186034;23;20147;-95
2023/09/15 06:41:36;;;;;;;1.90;1.80;;;;;;;;;;6186128;23;20156;-96
2023/09/15 06:44:04;;;;;;;1.48;1.38;;;;;;;;;;6186161;23;20148;-95
2023/09/15 06:46:33;;;;;;;1.83;1.73;;;;;;;;;;6186036;23;20160;-95
2023/09/15 06:49:01;;;;;;;1.73;1.63;;;;;;;;;;6185845;23;20148;-95
2023/09/15 06:51:29;;;;;;;1.88;1.77;;;;;;;;;;6185943;23;20203;-95
2023/09/15 06:53:56;;;;;;;2.13;2.00;;;;;;;;;;6186220;23;20144;-96
2023/09/15 06:56:24;;;;;;;2.40;2.10;;;;;;;;;;6185945;23;20144;-96
2023/09/15 06:58:52;;;;;;;2.65;2.42;;;;;;;;;;6185608;23;20155;-95
2023/09/15 07:01:19;;;;;;;4.75;3.05;;;;;;;;;;6185856;23;20143;-95
2023/09/15 07:03:48;;;;;;;1.80;1.70;;;;;;;;;;6186055;23;20148;-96
2023/09/15 07:06:18;;;;;;;2.28;1.77;;;;;;;;;;6185905;23;20148;-96
2023/09/15 07:08:47;;;;;;;1.95;1.85;;;;;;;;;;6185586;23;20167;-94
2023/09/15 07:11:15;;;;;;;2.35;2.22;;;;;;;;;;6185716;23;20187;-95
2023/09/15 07:13:43;;;;;;;1.95;1.85;;;;;;;;;;6185791;23;20154;-96
2023/09/15 07:16:10;;;;;;;1.95;1.70;;;;;;;;;;6185870;23;20171;-94
2023/09/15 07:18:38;;;;;;;1.88;1.77;;;;;;;;;;6185511;23;20144;-96
2023/09/15 07:21:08;;;;;;;1.83;1.73;;;;;;;;;;6185726;23;20144;-94
2023/09/15 07:23:36;;;;;;;2.90;2.13;;;;;;;;;;6185790;23;20151;-95
2023/09/15 07:26:03;;;;;;;2.70;2.22;;;;;;;;;;6185636;23;20151;-94
2023/09/15 07:28:31;;;;;;;2.75;2.10;;;;;;;;;;6184898;23;20159;-93
2023/09/15 07:31:03;;;;;;;2.08;1.95;;;;;;;;;;6185515;23;20171;-94
2023/09/15 07:33:31;;;;;;;2.65;2.00;;;;;;;;;;6185523;23;20160;-95
2023/09/15 07:36:00;;;;;;;1.88;1.70;;;;;;;;;;6185711;23;20163;-93
2023/09/15 07:38:30;;;;;;;1.58;1.48;;;;;;;;;;6185118;23;20198;-94
2023/09/15 07:40:58;;;;;;;2.50;2.30;;;;;;;;;;6185629;23;20148;-94
2023/09/15 07:43:26;;;;;;;2.05;1.95;;;;;;;;;;6185612;23;20151;-94
2023/09/15 07:45:54;;;;;;;2.47;2.28;;;;;;;;;;6185510;23;20158;-94
2023/09/15 07:48:22;;;;;;;1.80;1.70;;;;;;;;;;6185252;23;20158;-94
2023/09/15 07:50:50;;;;;;;2.45;2.25;;;;;;;;;;6185244;23;20179;-95
2023/09/15 07:53:18;;;;;;;3.10;2.25;;;;;;;;;;6185522;23;20163;-95
2023/09/15 07:55:47;;;;;;;2.17;1.98;;;;;;;;;;6185474;23;20204;-94
2023/09/15 07:58:15;;;;;;;2.30;2.10;;;;;;;;;;6184900;23;20147;-94
2023/09/15 08:00:43;;;;;;;2.40;2.20;;;;;;;;;;6185406;23;20159;-94
2023/09/15 08:03:11;;;;;;;2.88;2.65;;;;;;;;;;6185323;23;20147;-93
2023/09/15 08:05:38;;;;;;;2.38;2.13;;;;;;;;;;6185390;23;20147;-93
2023/09/15 08:08:06;;;;;;;2.50;2.10;;;;;;;;;;6184911;23;20147;-94
2023/09/15 08:10:34;;;;;;;2.83;2.63;;;;;;;;;;6185157;23;20178;-93
2023/09/15 08:13:03;;;;;;;2.80;2.58;;;;;;;;;;6185305;23;20167;-95
2023/09/15 08:15:31;;;;;;;3.50;2.60;;;;;;;;;;6185351;23;20167;-95
2023/09/15 08:17:58;;;;;;;1.80;1.70;;;;;;;;;;6184794;23;20148;-93
2023/09/15 08:20:26;;;;;;;2.65;2.45;;;;;;;;;;6185249;23;20158;-95
2023/09/15 08:22:57;;;;;;;2.60;2.40;;;;;;;;;;6185170;23;20220;-95
2023/09/15 08:25:25;;;;;;;3.00;2.78;;;;;;;;;;6185079;23;20155;-95
2023/09/15 08:27:53;;;;;;;3.20;2.90;;;;;;;;;;6184295;23;20170;-96
2023/09/15 08:30:24;;;;;;;2.90;2.70;;;;;;;;;;6184908;23;20144;-94
2023/09/15 08:32:52;;;;;;;2.60;2.40;;;;;;;;;;6185170;23;20148;-94
2023/09/15 08:35:19;;;;;;;3.78;3.47;;;;;;;;;;6185008;23;20147;-96
2023/09/15 08:37:48;;;;;;;3.30;3.03;;;;;;;;;;6184760;23;20150;-94
2023/09/15 08:40:16;;;;;;;2.58;2.40;;;;;;;;;;6184951;23;20238;-94
2023/09/15 08:42:43;;;;;;;2.40;2.20;;;;;;;;;;6184921;23;20151;-94
2023/09/15 08:45:12;;;;;;;2.28;2.10;;;;;;;;;;6184659;23;20147;-94
2023/09/15 08:47:46;;;;;;;2.60;2.40;;;;;;;;;;6184679;23;20148;-93
2023/09/15 08:50:14;;;;;;;2.55;2.35;;;;;;;;;;6184951;23;20159;-94
2023/09/15 08:52:42;;;;;;;2.58;2.38;;;;;;;;;;6183538;23;20196;-95
2023/09/15 08:55:10;;;;;;;2.58;2.38;;;;;;;;;;6183358;23;20158;-94
2023/09/15 08:57:41;;;;;;;3.05;2.75;;;;;;;;;;6182994;23;20147;-95
2023/09/15 09:00:10;;;;;;;4.78;2.35;;;;;;;;;;6183256;23;20186;-94
2023/09/15 09:02:37;;;;;;;2.20;2.00;;;;;;;;;;6183290;23;20151;-94
2023/09/15 09:05:09;;;;;;;2.10;1.88;;;;;;;;;;6183301;23;20167;-95
2023/09/15 09:07:37;;;;;;;2.63;2.42;;;;;;;;;;6182975;23;20158;-94
2023/09/15 09:10:06;;;;;;;1.77;1.60;;;;;;;;;;6183322;23;20166;-95
2023/09/15 09:12:34;;;;;;;2.65;2.45;;;;;;;;;;6183140;23;20179;-94
2023/09/15 09:15:02;;;;;;;2.05;1.92;;;;;;;;;;6183255;23;20162;-94
2023/09/15 09:17:30;;;;;;;2.10;2.00;;;;;;;;;;6182935;23;20164;-94
2023/09/15 09:19:57;;;;;;;3.13;2.83;;;;;;;;;;6183090;23;20163;-94
2023/09/15 09:22:27;;;;;;;2.40;2.20;;;;;;;;;;6183092;23;20175;-94
2023/09/15 09:24:56;;;;;;;2.50;2.30;;;;;;;;;;6183420;23;20163;-96
2023/09/15 09:27:23;;;;;;;3.42;3.00;;;;;;;;;;6182769;23;20155;-94
2023/09/15 09:29:51;;;;;;;3.38;3.08;;;;;;;;;;6181206;23;20171;-95
2023/09/15 09:32:18;;;;;;;2.22;2.05;;;;;;;;;;6182724;23;20178;-94
2023/09/15 09:34:51;;;;;;;2.95;2.75;;;;;;;;;;6183150;23;20162;-93
2023/09/15 09:37:24;;;;;;;2.40;2.17;;;;;;;;;;6182956;23;20198;-95
2023/09/15 09:39:53;;;;;;;3.33;3.03;;;;;;;;;;6182979;23;20167;-93
2023/09/15 09:42:24;;;;;;;6.53;3.50;;;;;;;;;;6182983;23;20210;-94
2023/09/15 09:44:53;;;;;;;3.20;2.90;;;;;;;;;;6183172;23;20148;-95
2023/09/15 09:47:22;;;;;;;2.90;2.70;;;;;;;;;;6183016;23;20166;-91
2023/09/15 09:49:52;;;;;;;2.80;2.60;;;;;;;;;;6182865;23;20167;-95
2023/09/15 09:52:21;;;;;;;2.80;2.60;;;;;;;;;;6182855;23;20182;-93
2023/09/15 09:54:52;;;;;;;3.05;2.75;;;;;;;;;;6182932;23;20158;-92
2023/09/15 09:57:21;;;;;;;2.90;2.70;;;;;;;;;;6184294;23;20162;-91
2023/09/15 09:59:49;;;;;;;3.17;2.97;;;;;;;;;;6184661;23;20178;-93
2023/09/15 10:02:16;;;;;;;2.88;2.67;;;;;;;;;;6184923;23;20210;-92
2023/09/15 10:04:45;;;;;;;2.67;2.47;;;;;;;;;;6185084;23;20147;-94
2023/09/15 10:07:13;;;;;;;3.40;2.92;;;;;;;;;;6185041;23;20180;-94
2023/09/15 10:09:41;;;;;;;3.30;3.00;;;;;;;;;;6184576;23;20167;-93
2023/09/15 10:12:10;;;;;;;3.20;2.92;;;;;;;;;;6184873;23;20178;-95
2023/09/15 10:14:39;;;;;;;3.25;3.03;;;;;;;;;;6184822;23;20159;-94
2023/09/15 10:17:06;;;;;;;2.50;2.30;;;;;;;;;;6184929;23;20171;-92
2023/09/15 10:19:34;;;;;;;3.15;2.88;;;;;;;;;;6184505;23;20187;-94
2023/09/15 10:22:02;;;;;;;2.72;2.53;;;;;;;;;;6184726;23;20156;-93
2023/09/15 10:24:31;;;;;;;2.35;2.25;;;;;;;;;;6184756;23;20151;-94
2023/09/15 10:26:59;;;;;;;3.60;3.30;;;;;;;;;;6184600;23;20216;-93
2023/09/15 10:29:32;;;;;;;2.50;2.30;;;;;;;;;;6183480;23;20203;-93
2023/09/15 10:32:04;;;;;;;2.95;2.75;;;;;;;;;;6184618;23;20194;-94
2023/09/15 10:34:33;;;;;;;2.40;2.20;;;;;;;;;;6184714;23;20155;-94
2023/09/15 10:37:02;;;;;;;2.17;2.05;;;;;;;;;;6184640;23;20179;-93
2023/09/15 10:39:37;;;;;;;3.00;2.80;;;;;;;;;;6184379;23;20197;-93
2023/09/15 10:42:10;;;;;;;2.80;2.20;;;;;;;;;;6184721;23;20159;-93
2023/09/15 10:44:40;;;;;;;1.90;1.80;;;;;;;;;;6184467;23;20178;-93
2023/09/15 10:47:16;;;;;;;2.10;2.00;;;;;;;;;;6184737;23;20199;-94
2023/09/15 10:49:52;;;;;;;2.60;2.40;;;;;;;;;;6184186;23;20190;-92
2023/09/15 10:52:31;;;;;;;2.45;2.25;;;;;;;;;;6184251;23;20198;-92
2023/09/15 10:54:59;;;;;;;2.03;1.80;;;;;;;;;;6179960;23;20159;-95
2023/09/15 10:57:27;;;;;;;1.90;1.80;;;;;;;;;;6176745;23;20175;-92
2023/09/15 10:59:56;;;;;;;2.10;2.00;;;;;;;;;;6183422;23;20177;-93
2023/09/15 11:02:26;;;;;;;2.63;2.05;;;;;;;;;;6182366;23;20175;-93
2023/09/15 11:04:54;;;;;;;2.50;2.25;;;;;;;;;;6180213;23;20171;-94
2023/09/15 11:07:22;;;;;;;2.17;2.08;;;;;;;;;;6180192;23;20159;-94
2023/09/15 11:09:49;;;;;;;2.83;2.63;;;;;;;;;;6183402;23;20182;-94
2023/09/15 11:12:17;;;;;;;2.33;2.22;;;;;;;;;;6181525;23;20194;-94
2023/09/15 11:14:44;;;;;;;2.20;2.10;;;;;;;;;;6182453;23;20186;-94
2023/09/15 11:17:13;;;;;;;2.63;2.30;;;;;;;;;;6181557;23;20171;-92
2023/09/15 11:19:41;;;;;;;3.00;2.75;;;;;;;;;;6183422;23;20191;-95
2023/09/15 11:22:08;;;;;;;2.75;2.55;;;;;;;;;;6183968;23;20163;-93
2023/09/15 11:24:36;;;;;;;3.35;3.05;;;;;;;;;;6180810;23;20170;-93
2023/09/15 11:27:04;;;;;;;2.50;2.30;;;;;;;;;;6181751;23;20164;-93
2023/09/15 11:29:32;;;;;;;2.78;2.55;;;;;;;;;;6177364;23;20206;-94
2023/09/15 11:32:01;;;;;;;2.78;2.58;;;;;;;;;;6177313;23;20366;-94
2023/09/15 11:34:31;;;;;;;2.58;2.47;;;;;;;;;;6177875;23;20170;-94
2023/09/15 11:37:01;;;;;;;2.58;2.38;;;;;;;;;;6176477;23;20175;-93
2023/09/15 11:39:29;;;;;;;2.08;1.98;;;;;;;;;;6178638;23;20199;-94
2023/09/15 11:41:57;;;;;;;2.40;2.20;;;;;;;;;;6178703;23;20178;-94
2023/09/15 11:44:26;;;;;;;2.45;2.25;;;;;;;;;;6179231;23;20183;-95
2023/09/15 11:46:55;;;;;;;11.82;2.45;;;;;;;;;;6177292;23;20178;-93
2023/09/15 11:49:24;;;;;;;2.45;1.88;;;;;;;;;;6178599;23;20190;-94
2023/09/15 11:51:55;;;;;;;2.55;2.38;;;;;;;;;;6182422;23;20155;-95
2023/09/15 11:54:24;;;;;;;3.63;2.25;;;;;;;;;;6183514;23;20203;-95
2023/09/15 11:56:52;;;;;;;2.47;2.33;;;;;;;;;;6181847;23;20163;-95
2023/09/15 11:59:20;;;;;;;3.03;2.00;;;;;;;;;;6178240;23;20182;-93
2023/09/15 12:01:48;;;;;;;2.22;2.13;;;;;;;;;;6175936;23;20167;-95
2023/09/15 12:04:16;;;;;;;2.40;2.20;;;;;;;;;;6175011;23;20182;-94
2023/09/15 12:06:45;;;;;;;1.95;1.85;;;;;;;;;;6181785;23;20168;-94
2023/09/15 12:09:15;;;;;;;2.08;1.98;;;;;;;;;;6181557;23;20218;-96
2023/09/15 12:11:44;;;;;;;2.83;2.63;;;;;;;;;;6182750;23;20171;-95
2023/09/15 12:14:13;;;;;;;2.38;2.17;;;;;;;;;;6183547;23;20238;-95
2023/09/15 12:16:44;;;;;;;4.55;2.95;;;;;;;;;;6183324;23;20175;-95
2023/09/15 12:19:13;;;;;;;2.65;2.45;;;;;;;;;;6180355;23;20195;-93
2023/09/15 12:21:52;;;;;;;3.08;2.88;;;;;;;;;;6181951;23;20163;-95
2023/09/15 12:24:21;;;;;;;2.10;1.90;;;;;;;;;;6181540;23;20238;-94
2023/09/15 12:26:50;;;;;;;1.70;1.60;;;;;;;;;;6182670;23;20190;-95
2023/09/15 12:29:17;;;;;;;2.33;2.17;;;;;;;;;;6179199;23;20254;-94
2023/09/15 12:31:47;;;;;;;2.50;2.30;;;;;;;;;;6181313;23;20194;-95
2023/09/15 12:34:20;;;;;;;2.15;2.05;;;;;;;;;;6180754;23;20183;-95
2023/09/15 12:36:48;;;;;;;1.92;1.83;;;;;;;;;;6179414;23;20166;-93
2023/09/15 12:39:17;;;;;;;1.80;1.70;;;;;;;;;;6181532;23;20199;-93
2023/09/15 12:41:48;;;;;;;1.90;1.80;;;;;;;;;;6181814;23;20222;-96
2023/09/15 12:44:15;;;;;;;2.30;2.10;;;;;;;;;;6178046;23;20159;-93
2023/09/15 12:46:43;;;;;;;1.85;1.75;;;;;;;;;;6179246;23;20182;-94
2023/09/15 12:49:10;;;;;;;2.42;2.22;;;;;;;;;;6182307;23;20191;-94
2023/09/15 12:51:38;;;;;;;1.80;1.70;;;;;;;;;;6182311;23;20200;-94
2023/09/15 12:54:06;;;;;;;1.85;1.75;;;;;;;;;;6182037;23;20209;-94
2023/09/15 12:56:34;;;;;;;1.88;1.77;;;;;;;;;;6181284;23;20163;-93
2023/09/15 12:59:04;;;;;;;2.13;2.03;;;;;;;;;;6179579;23;20195;-95
2023/09/15 13:01:32;;;;;;;2.13;2.00;;;;;;;;;;6181564;23;20187;-93
2023/09/15 13:03:59;;;;;;;2.05;1.80;;;;;;;;;;6182097;23;20159;-94
2023/09/15 13:06:29;;;;;;;1.95;1.85;;;;;;;;;;6183041;23;20155;-95
2023/09/15 13:08:57;;;;;;;1.50;1.40;;;;;;;;;;6181214;23;20198;-94
2023/09/15 13:11:25;;;;;;;1.85;1.75;;;;;;;;;;6182374;23;20167;-94
2023/09/15 13:13:53;;;;;;;2.05;1.95;;;;;;;;;;6182041;23;20187;-96
2023/09/15 13:16:24;;;;;;;1.65;1.55;;;;;;;;;;6182858;23;20206;-95
2023/09/15 13:18:52;;;;;;;2.22;2.08;;;;;;;;;;6182649;23;20183;-96
2023/09/15 13:21:20;;;;;;;3.67;1.75;;;;;;;;;;6183364;23;20147;-96
2023/09/15 13:32:06;;;;;;;2.00;1.90;;;;;;;;;;6143549;23;20175;-95
2023/09/15 14:26:19;;;;;;;3.67;1.98;;;;;;;;;;6239825;22;20204;-95
2023/09/15 14:39:14;;;;;;;1.65;1.55;;;;;;;;;;6170660;23;20170;-94
2023/09/15 14:41:45;;;;;;;1.42;1.33;;;;;;;;;;6184897;23;20152;-95
2023/09/15 14:44:21;;;;;;;1.60;1.50;;;;;;;;;;6186238;23;20148;-95
2023/09/15 14:46:54;;;;;;;1.75;1.65;;;;;;;;;;6166917;23;20213;-95
2023/09/15 14:49:51;;;;;;;1.50;1.40;;;;;;;;;;6162936;23;20144;-95
2023/09/15 17:07:24;;;;;;;1.80;1.70;;;;;;;;;;6141271;23;20178;-91
2023/09/15 17:09:52;;;;;;;1.77;1.67;;;;;;;;;;6154701;23;20144;-93
2023/09/15 17:12:20;;;;;;;1.73;1.63;;;;;;;;;;6155100;23;20172;-93
2023/09/15 17:14:47;;;;;;;2.75;2.28;;;;;;;;;;6155055;23;20155;-93
2023/09/15 17:17:15;;;;;;;1.70;1.60;;;;;;;;;;6155091;23;20160;-93
2023/09/15 17:19:43;;;;;;;1.83;1.73;;;;;;;;;;6154817;23;20148;-93
2023/09/15 17:22:11;;;;;;;2.17;2.03;;;;;;;;;;6154815;23;20159;-93
2023/09/15 17:24:41;;;;;;;2.05;1.85;;;;;;;;;;6155118;23;20152;-92
2023/09/15 17:27:09;;;;;;;2.85;2.17;;;;;;;;;;6154898;23;20178;-93
2023/09/15 17:29:36;;;;;;;2.05;1.80;;;;;;;;;;6154707;23;20167;-94
2023/09/15 17:32:05;;;;;;;2.00;1.77;;;;;;;;;;6155019;23;20148;-92
2023/09/15 17:34:32;;;;;;;1.75;1.65;;;;;;;;;;6155067;23;20176;-93
2023/09/15 17:37:00;;;;;;;2.20;2.00;;;;;;;;;;6154765;23;20163;-92
2023/09/15 17:39:27;;;;;;;1.98;1.80;;;;;;;;;;6153266;23;20196;-94
2023/09/15 17:41:56;;;;;;;4.05;2.10;;;;;;;;;;6153487;23;20245;-92
2023/09/15 17:44:25;;;;;;;7.60;2.28;;;;;;;;;;6153440;23;20165;-93
2023/09/15 17:46:52;;;;;;;2.25;1.73;;;;;;;;;;6153406;23;20167;-93
2023/09/15 17:49:20;;;;;;;1.80;1.70;;;;;;;;;;6152904;23;20167;-93
2023/09/15 17:51:48;;;;;;;1.90;1.73;;;;;;;;;;6153429;23;20208;-92
2023/09/15 17:54:17;;;;;;;2.03;1.90;;;;;;;;;;6153405;23;20187;-93
2023/09/15 17:56:50;;;;;;;2.33;2.10;;;;;;;;;;6153117;23;20231;-94
2023/09/15 17:59:21;;;;;;;2.13;2.03;;;;;;;;;;6152863;23;20210;-91
2023/09/15 18:01:49;;;;;;;2.30;2.10;;;;;;;;;;6153502;23;20152;-92
2023/09/15 18:04:16;;;;;;;4.03;3.03;;;;;;;;;;6153265;23;20207;-93
2023/09/15 18:06:44;;;;;;;3.47;3.17;;;;;;;;;;6153320;23;20163;-94
2023/09/15 18:09:12;;;;;;;2.83;2.63;;;;;;;;;;6152782;23;20176;-91
2023/09/15 18:11:39;;;;;;;4.60;2.17;;;;;;;;;;6153235;23;20152;-93
2023/09/15 18:14:07;;;;;;;3.10;2.10;;;;;;;;;;6153292;23;20152;-93
2023/09/15 18:16:36;;;;;;;2.92;2.70;;;;;;;;;;6153010;23;20175;-93
2023/09/15 18:19:04;;;;;;;5.95;5.35;;;;;;;;;;6154830;23;20175;-93
2023/09/15 18:21:31;;;;;;;7.10;6.45;;;;;;;;;;6155083;23;20179;-91